Time;durP1;ratioP1;P1;durP2;ratioP2;P2;SDS_P1;SDS_P2;PMS_P1;PMS_P2;Temp;Humidity;BMP_temperature;BMP_pressure;BME280_temperature;BME280_humidity;BME280_pressure;Samples;Min_cycle;Max_cycle;Signal;HPM_P1;HPM_P2
2024/04/04 00:01:00;;;;;;;9.05;4.13;;;;;;;13.42;66.41;99643.81;4839324;29;97982;-83
2024/04/04 00:03:28;;;;;;;9.07;5.03;;;;;;;13.42;67.12;99646.44;4808155;29;99659;-83
2024/04/04 00:05:54;;;;;;;8.15;5.00;;;;;;;13.44;66.87;99639.31;4841243;29;96894;-85
2024/04/04 00:08:19;;;;;;;9.13;4.30;;;;;;;13.47;66.59;99644.41;4855201;29;97121;-84
2024/04/04 00:10:45;;;;;;;7.75;5.45;;;;;;;13.58;66.81;99633.22;4838976;29;101516;-83
2024/04/04 00:13:10;;;;;;;7.65;5.03;;;;;;;13.60;66.40;99631.38;4839588;29;97927;-88
2024/04/04 00:15:40;;;;;;;10.15;5.80;;;;;;;13.64;66.54;99642.56;4854270;29;97235;-83
2024/04/04 00:18:05;;;;;;;9.35;5.55;;;;;;;13.70;66.18;99642.22;4835235;29;97195;-83
2024/04/04 00:20:31;;;;;;;8.57;5.05;;;;;;;13.65;65.87;99644.31;4834864;29;101341;-83
2024/04/04 00:22:57;;;;;;;9.00;4.65;;;;;;;13.63;66.09;99623.28;4835670;29;98146;-83
2024/04/04 00:25:23;;;;;;;7.55;4.35;;;;;;;13.69;65.86;99630.00;4820065;29;96747;-83
2024/04/04 00:27:49;;;;;;;7.88;4.43;;;;;;;13.50;66.44;99624.94;4822899;29;96806;-83
2024/04/04 00:30:14;;;;;;;8.85;4.78;;;;;;;13.47;66.61;99627.75;4838944;29;98150;-83
2024/04/04 00:32:40;;;;;;;6.63;4.57;;;;;;;13.38;67.05;99623.84;4839377;29;97981;-82
2024/04/04 00:35:06;;;;;;;7.75;4.90;;;;;;;13.54;66.71;99629.94;4823384;29;96793;-83
2024/04/04 00:37:31;;;;;;;7.22;4.55;;;;;;;13.57;66.84;99628.91;4842653;29;97213;-84
2024/04/04 00:39:57;;;;;;;7.53;4.93;;;;;;;13.55;66.73;99625.50;4843548;29;100003;-83
2024/04/04 00:42:22;;;;;;;6.15;4.22;;;;;;;13.58;65.92;99626.19;4822522;29;100432;-84
2024/04/04 00:44:48;;;;;;;9.15;4.25;;;;;;;13.58;66.08;99625.31;4856398;28;96893;-83
2024/04/04 00:47:13;;;;;;;9.10;4.40;;;;;;;13.58;66.37;99625.31;4827489;29;97722;-82
2024/04/04 00:49:39;;;;;;;7.22;4.75;;;;;;;13.51;66.30;99630.09;4807477;29;101551;-84
2024/04/04 00:52:09;;;;;;;6.15;4.30;;;;;;;13.63;66.13;99625.91;4813877;29;101118;-83
2024/04/04 00:54:42;;;;;;;7.53;4.10;;;;;;;13.57;65.99;99627.13;4823321;29;97016;-83
2024/04/04 00:57:08;;;;;;;6.43;4.25;;;;;;;13.57;65.85;99624.47;4823164;29;96861;-82
2024/04/04 00:59:36;;;;;;;6.93;4.53;;;;;;;13.48;65.95;99622.38;4838111;29;101735;-83
2024/04/04 01:02:01;;;;;;;5.97;4.53;;;;;;;13.19;66.92;99618.72;4841199;29;101736;-84
2024/04/04 01:04:27;;;;;;;8.82;4.75;;;;;;;13.22;66.84;99620.31;4842362;29;96830;-83
2024/04/04 01:06:52;;;;;;;7.25;4.35;;;;;;;13.18;66.99;99616.16;4872790;28;97062;-83
2024/04/04 01:09:18;;;;;;;6.53;4.60;;;;;;;13.07;67.07;99620.25;4856413;29;100545;-84
2024/04/04 01:11:43;;;;;;;8.52;5.40;;;;;;;12.81;67.79;99618.19;4856577;29;101376;-83
2024/04/04 01:14:09;;;;;;;9.02;4.93;;;;;;;12.66;68.56;99609.34;4859992;28;97368;-84
2024/04/04 01:16:35;;;;;;;8.50;4.72;;;;;;;12.87;68.12;99615.22;4841201;29;96940;-83
2024/04/04 01:19:00;;;;;;;7.15;4.70;;;;;;;12.97;67.90;99616.41;4843012;29;97817;-83
2024/04/04 01:21:26;;;;;;;6.78;4.50;;;;;;;12.76;68.12;99618.44;4856732;29;101590;-83
2024/04/04 01:23:52;;;;;;;10.27;4.47;;;;;;;12.77;67.75;99611.38;4841228;29;96841;-83
2024/04/04 01:26:18;;;;;;;7.38;4.72;;;;;;;12.72;67.99;99606.38;4857421;29;96795;-83
2024/04/04 01:28:44;;;;;;;8.60;4.28;;;;;;;12.58;68.40;99608.91;4872698;28;97986;-83
2024/04/04 01:31:10;;;;;;;7.32;5.20;;;;;;;12.57;68.55;99621.22;4869033;28;98146;-84
2024/04/04 01:33:36;;;;;;;7.45;4.50;;;;;;;12.56;68.52;99618.66;4855017;29;97664;-82
2024/04/04 01:36:02;;;;;;;7.05;3.95;;;;;;;12.53;68.62;99613.56;4846041;29;96991;-84
2024/04/04 01:38:28;;;;;;;8.20;4.80;;;;;;;12.40;68.89;99613.34;4831779;29;101728;-83
2024/04/04 01:40:54;;;;;;;6.75;4.10;;;;;;;12.44;69.08;99620.16;4851840;29;97837;-83
2024/04/04 01:43:19;;;;;;;6.82;4.38;;;;;;;12.37;68.83;99617.00;4843369;29;96865;-83
2024/04/04 01:45:45;;;;;;;7.45;4.00;;;;;;;12.35;69.34;99616.22;4856432;29;96869;-83
2024/04/04 01:48:10;;;;;;;7.50;4.65;;;;;;;12.33;69.08;99617.22;4856524;29;98587;-83
2024/04/04 01:50:36;;;;;;;6.00;4.10;;;;;;;12.49;69.14;99620.75;4825542;29;101425;-83
2024/04/04 01:53:02;;;;;;;6.82;4.30;;;;;;;12.57;68.86;99620.38;4856922;29;96758;-83
2024/04/04 01:55:29;;;;;;;6.10;4.10;;;;;;;12.39;69.17;99609.88;4853792;29;96853;-82
2024/04/04 01:57:58;;;;;;;10.25;5.43;;;;;;;12.52;68.80;99620.59;4855444;29;101058;-83
2024/04/04 02:00:26;;;;;;;6.50;4.78;;;;;;;12.47;69.18;99622.63;4853070;29;101268;-83
2024/04/04 02:02:53;;;;;;;6.57;4.38;;;;;;;12.41;68.96;99605.38;4838335;29;96908;-83
2024/04/04 02:05:18;;;;;;;8.38;4.78;;;;;;;12.36;69.91;99617.06;4856111;29;96893;-83
2024/04/04 02:07:44;;;;;;;6.88;4.80;;;;;;;12.43;69.41;99611.41;4842876;29;97529;-83
2024/04/04 02:10:10;;;;;;;7.90;5.22;;;;;;;12.38;69.55;99617.84;4856185;29;101752;-85
2024/04/04 02:12:35;;;;;;;10.35;4.15;;;;;;;12.49;69.14;99609.41;4825326;29;96842;-83
2024/04/04 02:15:02;;;;;;;9.18;5.03;;;;;;;12.47;69.12;99620.00;4837494;29;97127;-82
2024/04/04 02:17:27;;;;;;;8.93;5.00;;;;;;;12.47;69.19;99620.00;4832550;29;101593;-83
2024/04/04 02:19:54;;;;;;;8.35;4.93;;;;;;;12.54;69.02;99618.75;4856209;29;97881;-82
2024/04/04 02:22:20;;;;;;;9.65;4.75;;;;;;;12.49;69.19;99615.50;4840435;29;97366;-83
2024/04/04 02:24:46;;;;;;;6.55;4.72;;;;;;;12.49;69.17;99610.25;4840218;29;97468;-82
2024/04/04 02:27:11;;;;;;;7.78;4.70;;;;;;;12.55;69.08;99603.78;4855820;29;102056;-82
2024/04/04 02:29:37;;;;;;;7.88;4.45;;;;;;;12.64;68.73;99611.19;4840627;29;97613;-83
2024/04/04 02:32:02;;;;;;;8.15;4.75;;;;;;;12.54;68.59;99607.38;4856326;29;96693;-82
2024/04/04 02:34:28;;;;;;;8.23;4.85;;;;;;;12.51;69.12;99602.25;4856280;29;96964;-82
2024/04/04 02:36:54;;;;;;;8.68;4.97;;;;;;;12.42;69.25;99614.09;4855801;29;101835;-82
2024/04/04 02:39:19;;;;;;;7.03;4.72;;;;;;;12.34;69.80;99611.91;4859145;29;101068;-82
2024/04/04 02:41:45;;;;;;;7.25;4.70;;;;;;;12.18;69.83;99601.31;4828137;29;97289;-82
2024/04/04 02:44:10;;;;;;;8.60;5.32;;;;;;;12.29;70.02;99606.03;4859423;29;96889;-82
2024/04/04 02:46:37;;;;;;;8.05;4.43;;;;;;;12.34;69.46;99604.00;4845196;29;101921;-82
2024/04/04 02:49:03;;;;;;;8.95;5.00;;;;;;;12.36;69.35;99604.78;4857778;29;100952;-83
2024/04/04 02:51:29;;;;;;;8.90;4.63;;;;;;;12.30;69.74;99615.59;4827048;29;96807;-82
2024/04/04 02:53:54;;;;;;;8.57;4.90;;;;;;;12.33;69.23;99614.59;4840700;29;97245;-82
2024/04/04 02:56:20;;;;;;;8.05;3.90;;;;;;;12.21;69.88;99609.03;4827150;29;101689;-84
2024/04/04 02:58:45;;;;;;;9.02;5.10;;;;;;;12.17;69.97;99606.66;4840207;29;97511;-83
2024/04/04 03:01:11;;;;;;;9.93;5.20;;;;;;;12.14;70.37;99606.81;4830115;29;96708;-83
2024/04/04 03:03:37;;;;;;;6.75;4.80;;;;;;;12.13;70.17;99616.50;4843851;29;96829;-82
2024/04/04 03:06:03;;;;;;;6.65;4.95;;;;;;;12.14;69.85;99617.34;4823598;28;101349;-83
2024/04/04 03:08:28;;;;;;;9.05;4.70;;;;;;;12.10;70.20;99614.03;4846109;28;99962;-84
2024/04/04 03:10:54;;;;;;;9.98;5.65;;;;;;;12.17;69.75;99612.78;4857570;28;96794;-82
2024/04/04 03:13:21;;;;;;;8.00;4.47;;;;;;;12.21;69.52;99601.16;4858210;28;96987;-84
2024/04/04 03:15:56;;;;;;;8.73;4.40;;;;;;;11.96;69.83;99616.50;4843010;29;101349;-82
2024/04/04 03:18:22;;;;;;;6.55;4.93;;;;;;;11.92;70.52;99609.69;4860416;28;101486;-82
2024/04/04 03:20:48;;;;;;;10.80;6.45;;;;;;;11.90;70.62;99607.16;4830085;28;97139;-82
2024/04/04 03:23:13;;;;;;;6.57;4.55;;;;;;;11.88;70.66;99602.91;4833088;28;97111;-82
2024/04/04 03:25:39;;;;;;;7.88;4.95;;;;;;;11.94;70.48;99619.22;4861459;28;101598;-82
2024/04/04 03:28:05;;;;;;;6.50;4.90;;;;;;;11.81;70.20;99614.59;4849363;28;102123;-82
2024/04/04 03:30:31;;;;;;;8.07;5.05;;;;;;;11.74;70.70;99614.91;4830571;28;97971;-83
2024/04/04 03:32:56;;;;;;;8.13;5.47;;;;;;;12.00;70.32;99620.69;4858182;28;96989;-88
2024/04/04 03:35:22;;;;;;;6.70;4.63;;;;;;;11.98;69.53;99622.53;4841885;29;102142;-83
2024/04/04 03:37:47;;;;;;;7.85;4.78;;;;;;;12.03;69.83;99623.16;4842183;29;101208;-82
2024/04/04 03:40:13;;;;;;;6.57;4.25;;;;;;;12.02;68.97;99623.25;4877275;28;97044;-82
2024/04/04 03:42:38;;;;;;;8.15;5.25;;;;;;;12.04;68.76;99621.38;4851173;28;96905;-82
2024/04/04 03:45:04;;;;;;;14.43;5.32;;;;;;;12.08;68.88;99620.31;4839753;28;101578;-82
2024/04/04 03:47:33;;;;;;;8.75;5.03;;;;;;;12.08;68.69;99612.41;4842358;29;101032;-82
2024/04/04 03:49:59;;;;;;;7.63;4.88;;;;;;;12.09;68.71;99625.47;4851379;28;96929;-82
2024/04/04 03:52:24;;;;;;;7.30;4.70;;;;;;;12.21;67.94;99634.50;4845933;28;96863;-82
2024/04/04 03:54:50;;;;;;;4.70;4.20;;;;;;;12.29;68.00;99634.97;4845997;29;101964;-82
2024/04/04 03:57:16;;;;;;;5.80;4.43;;;;;;;12.27;67.37;99631.56;4861315;28;97792;-83
2024/04/04 03:59:42;;;;;;;8.60;4.80;;;;;;;12.40;67.02;99626.53;4860484;28;97313;-82
2024/04/04 04:02:08;;;;;;;7.75;4.75;;;;;;;12.40;66.78;99637.06;4854149;28;97157;-82
2024/04/04 04:04:33;;;;;;;18.70;7.35;;;;;;;12.46;66.85;99632.31;4832879;28;100894;-82
2024/04/04 04:06:59;;;;;;;12.05;8.02;;;;;;;12.42;66.72;99635.16;4845413;28;98398;-82
2024/04/04 04:09:25;;;;;;;11.30;6.25;;;;;;;12.42;66.48;99640.44;4861550;28;96826;-82
2024/04/04 04:11:50;;;;;;;12.32;6.78;;;;;;;12.42;66.51;99633.41;4844959;28;97355;-84
2024/04/04 04:14:16;;;;;;;10.20;5.30;;;;;;;12.49;66.43;99630.44;4828493;28;101640;-84
2024/04/04 04:16:41;;;;;;;10.43;5.95;;;;;;;12.58;65.87;99636.06;4850065;28;97651;-82
2024/04/04 04:19:07;;;;;;;7.78;6.07;;;;;;;12.58;65.61;99630.81;4856883;28;96871;-85
2024/04/04 04:21:33;;;;;;;8.82;5.68;;;;;;;12.56;65.04;99621.28;4836085;28;96894;-82
2024/04/04 04:24:00;;;;;;;6.75;5.07;;;;;;;12.38;65.69;99620.47;4858869;28;101156;-84
2024/04/04 04:26:26;;;;;;;7.00;5.35;;;;;;;12.43;65.78;99631.63;4872243;28;101525;-84
2024/04/04 04:28:51;;;;;;;8.93;5.63;;;;;;;12.49;65.84;99635.72;4844235;28;97280;-83
2024/04/04 04:31:36;;;;;;;5.28;4.75;;;;;;;12.34;66.57;99627.69;4860370;28;97109;-83
2024/04/04 04:34:05;;;;;;;6.70;4.80;;;;;;;12.20;66.87;99632.81;4843603;28;101569;-85
2024/04/04 04:36:32;;;;;;;10.25;9.40;;;;;;;12.34;66.43;99647.91;4844053;28;101688;-85
2024/04/04 04:38:58;;;;;;;10.77;9.60;;;;;;;12.49;65.45;99640.97;4846498;28;97820;-84
2024/04/04 04:41:23;;;;;;;10.30;9.27;;;;;;;12.48;65.75;99631.38;4856121;28;97179;-83
2024/04/04 04:43:50;;;;;;;10.35;8.45;;;;;;;12.54;65.61;99638.97;4839646;28;101832;-86
2024/04/04 04:46:16;;;;;;;10.43;9.63;;;;;;;12.66;64.98;99643.56;4860532;28;98187;-84
2024/04/04 04:48:42;;;;;;;12.13;11.02;;;;;;;12.74;64.73;99643.13;4852073;28;96799;-83
2024/04/04 04:51:08;;;;;;;9.25;8.40;;;;;;;12.82;64.42;99646.22;4844570;28;96991;-83
2024/04/04 04:53:34;;;;;;;9.85;9.00;;;;;;;12.85;64.46;99631.09;4843943;28;97501;-84
2024/04/04 04:56:00;;;;;;;10.75;9.77;;;;;;;12.88;64.09;99638.81;4851717;28;101233;-83
2024/04/04 04:58:25;;;;;;;8.70;7.68;;;;;;;12.91;63.92;99633.41;4865395;28;96801;-84
2024/04/04 05:00:52;;;;;;;10.57;9.20;;;;;;;12.99;63.29;99635.63;4844467;28;96806;-91
2024/04/04 05:03:21;;;;;;;9.93;8.20;;;;;;;13.10;62.94;99632.41;4842041;28;100840;-90
2024/04/04 05:05:47;;;;;;;12.32;11.15;;;;;;;13.15;62.82;99635.63;4856413;28;98498;-85
2024/04/04 05:08:13;;;;;;;11.98;10.82;;;;;;;13.02;63.37;99645.13;4860137;28;96857;-87
2024/04/04 05:10:39;;;;;;;10.10;9.20;;;;;;;13.02;63.31;99632.81;4845280;28;96807;-92
2024/04/04 05:13:05;;;;;;;15.02;8.77;;;;;;;12.97;63.09;99623.47;4855293;28;101283;-91
2024/04/04 05:15:31;;;;;;;10.65;9.18;;;;;;;13.00;63.35;99626.81;4856855;28;98667;-92
2024/04/04 05:17:57;;;;;;;14.48;10.38;;;;;;;13.03;62.99;99636.28;4841236;28;97829;-91
2024/04/04 05:20:22;;;;;;;10.40;9.50;;;;;;;13.09;63.08;99639.47;4840233;28;98021;-92
2024/04/04 05:22:48;;;;;;;10.90;9.80;;;;;;;13.12;63.04;99643.72;4824405;28;101434;-91
2024/04/04 05:25:16;;;;;;;14.82;10.60;;;;;;;13.14;62.90;99640.03;4823912;28;101123;-92
2024/04/04 05:27:42;;;;;;;11.38;8.98;;;;;;;13.13;63.37;99650.69;4828070;28;97187;-91
2024/04/04 05:30:14;;;;;;;10.43;9.50;;;;;;;12.96;63.37;99642.84;4834600;28;97365;-92
2024/04/04 05:32:40;;;;;;;10.05;9.25;;;;;;;13.32;62.66;99642.63;4828832;28;100392;-92
2024/04/04 05:35:06;;;;;;;9.25;7.85;;;;;;;13.35;62.20;99658.25;4836456;28;101972;-91
2024/04/04 05:37:36;;;;;;;10.48;9.45;;;;;;;13.37;62.32;99648.50;4819939;28;96910;-91
2024/04/04 05:40:02;;;;;;;9.23;8.32;;;;;;;13.32;62.03;99655.78;4848109;28;97297;-92
2024/04/04 05:42:33;;;;;;;12.68;9.63;;;;;;;13.36;62.00;99652.06;4851690;28;99216;-91
2024/04/04 05:44:59;;;;;;;12.40;9.07;;;;;;;13.11;62.72;99642.84;4851430;28;101135;-90
2024/04/04 05:47:24;;;;;;;11.10;10.15;;;;;;;13.21;62.38;99659.00;4835456;28;98097;-93
2024/04/04 05:49:50;;;;;;;10.32;9.43;;;;;;;13.21;62.49;99660.81;4835356;28;97681;-90
2024/04/04 05:52:15;;;;;;;11.05;10.05;;;;;;;13.31;62.33;99654.09;4836882;28;101119;-88
2024/04/04 05:54:41;;;;;;;11.88;10.77;;;;;;;13.39;62.06;99658.97;4851749;28;101395;-91
2024/04/04 05:57:07;;;;;;;9.13;8.43;;;;;;;13.20;62.33;99657.28;4854165;28;97999;-91
2024/04/04 05:59:33;;;;;;;9.80;8.88;;;;;;;12.83;63.32;99666.38;4832402;28;98102;-86
2024/04/04 06:01:58;;;;;;;10.73;9.10;;;;;;;12.81;63.74;99662.97;4836630;28;98303;-92
2024/04/04 06:04:27;;;;;;;11.18;10.20;;;;;;;13.04;63.09;99674.91;4840678;28;100279;-87
2024/04/04 06:06:53;;;;;;;9.48;8.25;;;;;;;12.96;63.13;99675.31;4864663;28;98102;-93
2024/04/04 06:09:18;;;;;;;12.98;8.25;;;;;;;13.07;62.92;99683.47;4849498;28;97358;-94
2024/04/04 06:11:44;;;;;;;13.00;10.30;;;;;;;13.17;62.45;99675.06;4835852;28;100075;-92
2024/04/04 06:14:09;;;;;;;9.95;8.02;;;;;;;13.13;62.70;99677.03;4838594;28;101140;-92
2024/04/04 06:16:35;;;;;;;8.88;7.97;;;;;;;13.26;62.34;99674.59;4826165;28;98038;-86
2024/04/04 06:19:01;;;;;;;12.15;11.05;;;;;;;13.49;61.57;99689.97;4827188;28;97024;-89
2024/04/04 06:21:26;;;;;;;10.10;8.55;;;;;;;13.55;62.19;99686.16;4846312;28;101680;-88
2024/04/04 06:23:52;;;;;;;10.57;9.45;;;;;;;13.53;62.30;99683.59;4837259;28;102282;-93
2024/04/04 06:26:18;;;;;;;11.68;9.63;;;;;;;13.63;61.92;99683.09;4839029;28;97288;-91
2024/04/04 06:28:46;;;;;;;10.02;9.02;;;;;;;13.72;61.48;99682.56;4854853;28;98371;-93
2024/04/04 06:31:12;;;;;;;10.68;9.25;;;;;;;13.84;61.25;99689.75;4851842;28;98201;-87
2024/04/04 06:33:38;;;;;;;12.25;9.48;;;;;;;13.71;61.42;99694.91;4853362;28;98548;-87
2024/04/04 06:36:04;;;;;;;9.63;8.48;;;;;;;13.65;61.54;99681.22;4836828;28;98374;-87
2024/04/04 06:38:30;;;;;;;11.57;10.30;;;;;;;13.61;61.87;99703.41;4834772;28;98034;-89
2024/04/04 06:40:55;;;;;;;10.30;9.27;;;;;;;13.69;62.03;99699.41;4854572;28;102012;-87
2024/04/04 06:43:21;;;;;;;9.98;9.05;;;;;;;13.93;61.48;99691.03;4837947;28;100580;-86
2024/04/04 06:45:46;;;;;;;14.70;8.95;;;;;;;13.98;61.08;99683.69;4850761;28;98400;-87
2024/04/04 06:48:12;;;;;;;9.77;8.80;;;;;;;13.93;61.23;99685.75;4869463;28;96907;-87
2024/04/04 06:50:37;;;;;;;10.98;9.98;;;;;;;13.99;61.57;99691.53;4835592;28;101306;-87
2024/04/04 06:53:03;;;;;;;11.13;9.60;;;;;;;14.11;61.25;99697.00;4850532;28;98245;-86
2024/04/04 06:55:30;;;;;;;10.63;9.50;;;;;;;14.16;61.18;99697.59;4840405;28;98285;-87
2024/04/04 06:57:56;;;;;;;10.98;9.38;;;;;;;14.33;60.34;99701.91;4857402;28;98309;-86
2024/04/04 07:00:21;;;;;;;12.85;9.40;;;;;;;14.44;60.23;99696.81;4844781;28;101540;-88
2024/04/04 07:02:47;;;;;;;10.85;9.75;;;;;;;14.57;60.24;99700.44;4825565;28;100998;-86
2024/04/04 07:05:12;;;;;;;11.85;9.75;;;;;;;14.73;59.82;99704.81;4868413;28;97780;-86
2024/04/04 07:07:38;;;;;;;13.65;9.80;;;;;;;14.70;59.95;99704.06;4855237;28;97415;-86
2024/04/04 07:10:07;;;;;;;10.25;9.25;;;;;;;14.75;59.96;99710.84;4840385;28;100334;-87
2024/04/04 07:12:33;;;;;;;10.55;9.45;;;;;;;14.82;59.71;99714.81;4830577;28;99901;-87
2024/04/04 07:14:59;;;;;;;11.52;8.95;;;;;;;15.15;59.19;99711.88;4844185;28;97915;-87
2024/04/04 07:17:31;;;;;;;10.10;9.18;;;;;;;15.51;57.88;99699.94;4836685;28;97548;-86
2024/04/04 07:19:57;;;;;;;11.00;9.27;;;;;;;15.83;57.15;99705.81;4839976;28;98200;-86
2024/04/04 07:22:23;;;;;;;9.57;8.68;;;;;;;15.97;57.27;99708.41;4840436;28;98654;-85
2024/04/04 07:24:48;;;;;;;10.02;9.13;;;;;;;16.15;56.13;99710.78;4847223;28;97834;-87
2024/04/04 07:27:14;;;;;;;9.77;9.07;;;;;;;16.26;55.97;99713.53;4847090;28;96881;-93
2024/04/04 07:29:42;;;;;;;9.93;8.93;;;;;;;16.32;55.74;99717.56;4861471;28;98088;-91
2024/04/04 07:32:08;;;;;;;9.70;9.00;;;;;;;16.12;55.64;99724.22;4861887;28;99939;-80
2024/04/04 07:34:34;;;;;;;9.77;8.90;;;;;;;15.91;55.84;99719.41;4859155;28;96906;-87
2024/04/04 07:37:00;;;;;;;11.45;9.80;;;;;;;15.97;56.21;99726.06;4858114;28;97005;-85
2024/04/04 07:39:26;;;;;;;10.18;9.38;;;;;;;15.87;56.59;99717.03;4857682;28;101374;-84
2024/04/04 07:41:52;;;;;;;10.52;9.73;;;;;;;15.94;56.41;99727.13;4860551;28;98146;-87
2024/04/04 07:44:18;;;;;;;9.73;9.13;;;;;;;16.07;56.14;99722.72;4878297;28;97406;-85
2024/04/04 07:46:43;;;;;;;9.52;8.82;;;;;;;16.03;56.56;99731.81;4859048;28;97273;-85
2024/04/04 07:49:09;;;;;;;9.32;8.52;;;;;;;15.98;56.65;99739.22;4849515;28;100289;-84
2024/04/04 07:51:35;;;;;;;8.80;8.23;;;;;;;16.06;56.88;99738.72;4874741;28;97656;-84
2024/04/04 07:54:01;;;;;;;9.95;9.25;;;;;;;15.86;56.86;99737.38;4861814;28;97237;-85
2024/04/04 07:56:26;;;;;;;9.07;8.48;;;;;;;15.80;56.85;99741.25;4844918;28;96956;-83
2024/04/04 07:58:52;;;;;;;9.85;9.13;;;;;;;15.83;56.45;99741.06;4829779;28;101312;-84
2024/04/04 08:01:20;;;;;;;9.57;8.98;;;;;;;15.93;56.97;99745.75;4861103;28;97879;-85
2024/04/04 08:03:47;;;;;;;10.20;9.40;;;;;;;16.11;56.37;99739.22;4860143;28;97302;-85
2024/04/04 08:06:13;;;;;;;9.48;8.80;;;;;;;16.38;56.09;99749.81;4857193;29;98469;-85
2024/04/04 08:08:39;;;;;;;9.80;9.20;;;;;;;16.58;55.82;99739.66;4842220;29;101630;-91
2024/04/04 08:11:06;;;;;;;8.98;8.38;;;;;;;16.96;55.40;99742.38;4858182;29;98277;-87
2024/04/04 08:13:32;;;;;;;7.70;7.20;;;;;;;17.14;55.02;99738.41;4842059;29;96765;-88
2024/04/04 08:15:57;;;;;;;9.07;8.15;;;;;;;16.87;54.86;99749.16;4858663;29;97252;-87
2024/04/04 08:18:23;;;;;;;8.23;7.72;;;;;;;16.77;55.24;99748.06;4841576;29;102157;-81
2024/04/04 08:20:48;;;;;;;8.48;7.88;;;;;;;16.79;54.75;99742.69;4864825;28;97451;-89
2024/04/04 08:23:14;;;;;;;8.98;8.38;;;;;;;16.82;54.68;99747.78;4828949;29;96900;-88
2024/04/04 08:25:40;;;;;;;9.15;8.55;;;;;;;16.72;55.21;99758.09;4842434;29;96819;-88
2024/04/04 08:28:06;;;;;;;9.30;8.80;;;;;;;16.42;55.38;99753.09;4827255;29;101061;-88
2024/04/04 08:30:32;;;;;;;9.50;8.57;;;;;;;16.48;56.11;99761.47;4824644;29;98661;-88
2024/04/04 08:32:58;;;;;;;8.75;8.20;;;;;;;16.44;56.34;99760.00;4841307;28;97078;-89
2024/04/04 08:35:24;;;;;;;9.00;8.20;;;;;;;16.39;57.01;99762.09;4824582;29;96859;-89
2024/04/04 08:37:49;;;;;;;7.30;6.90;;;;;;;16.28;57.18;99768.09;4842023;29;98206;-87
2024/04/04 08:40:15;;;;;;;7.50;7.00;;;;;;;16.42;56.98;99766.34;4856363;28;99818;-89
2024/04/04 08:42:44;;;;;;;7.75;7.30;;;;;;;16.65;56.94;99762.97;4832958;29;97268;-88
2024/04/04 08:45:09;;;;;;;7.40;6.70;;;;;;;16.85;56.77;99766.13;4842008;29;96843;-88
2024/04/04 08:47:36;;;;;;;7.18;6.78;;;;;;;16.77;56.33;99760.50;4829216;29;98346;-88
2024/04/04 08:50:03;;;;;;;7.82;7.32;;;;;;;16.76;55.73;99767.59;4827021;29;98180;-89
2024/04/04 08:52:30;;;;;;;7.05;6.65;;;;;;;16.65;56.04;99765.63;4839582;29;98368;-91
2024/04/04 08:54:56;;;;;;;8.15;7.35;;;;;;;16.58;56.53;99771.44;4846634;28;96912;-91
2024/04/04 08:57:23;;;;;;;7.78;7.35;;;;;;;16.40;57.45;99758.47;4826507;29;101392;-90
2024/04/04 08:59:56;;;;;;;7.72;7.07;;;;;;;16.26;58.67;99769.16;4838858;29;99653;-89
2024/04/04 09:02:22;;;;;;;9.57;8.77;;;;;;;16.15;58.53;99764.56;4841729;29;96859;-90
2024/04/04 09:04:47;;;;;;;8.45;7.95;;;;;;;16.39;57.82;99769.19;4822602;29;97291;-89
2024/04/04 09:07:13;;;;;;;8.55;8.05;;;;;;;16.58;57.43;99767.00;4829783;29;102042;-87
2024/04/04 09:09:48;;;;;;;9.55;8.85;;;;;;;16.88;57.07;99761.44;4806615;29;101585;-84
2024/04/04 09:12:16;;;;;;;8.65;8.15;;;;;;;17.35;56.51;99764.38;4856076;28;96916;-83
2024/04/04 09:14:43;;;;;;;7.72;7.22;;;;;;;17.76;55.49;99763.22;4839539;29;96800;-83
2024/04/04 09:17:10;;;;;;;8.68;8.07;;;;;;;17.48;55.87;99769.66;4838991;29;98251;-83
2024/04/04 09:19:35;;;;;;;8.25;7.75;;;;;;;17.50;55.87;99768.59;4826941;29;98050;-83
2024/04/04 09:22:01;;;;;;;10.73;8.10;;;;;;;17.34;56.22;99774.16;4825232;29;98287;-83
2024/04/04 09:24:26;;;;;;;7.90;7.40;;;;;;;17.32;55.93;99767.25;4840268;29;96990;-82
2024/04/04 09:26:52;;;;;;;7.78;7.28;;;;;;;17.38;55.73;99767.66;4840493;29;97365;-83
2024/04/04 09:29:17;;;;;;;9.63;8.77;;;;;;;17.47;55.47;99757.34;4834625;29;97993;-83
2024/04/04 09:31:44;;;;;;;8.95;8.30;;;;;;;18.17;54.37;99762.00;4835368;29;96852;-83
2024/04/04 09:34:10;;;;;;;9.38;8.77;;;;;;;19.73;50.45;99749.06;4842409;29;96921;-83
2024/04/04 09:36:37;;;;;;;8.70;8.20;;;;;;;20.62;48.06;99747.03;4829369;29;96971;-83
2024/04/04 09:39:12;;;;;;;9.27;8.68;;;;;;;22.35;44.92;99751.28;4840662;29;101466;-86
2024/04/04 09:41:38;;;;;;;8.20;7.70;;;;;;;22.73;43.71;99743.38;4846208;29;96875;-87
2024/04/04 09:44:05;;;;;;;8.50;8.00;;;;;;;23.41;43.00;99757.38;4849727;29;96867;-84
2024/04/04 09:46:37;;;;;;;7.60;7.20;;;;;;;26.15;38.05;99747.31;4823892;29;100569;-84
2024/04/04 09:49:03;;;;;;;8.15;6.97;;;;;;;24.49;40.63;99762.91;4843072;29;97755;-89
2024/04/04 09:51:35;;;;;;;7.30;6.80;;;;;;;23.50;40.86;99750.28;4844137;29;96967;-89
2024/04/04 09:54:00;;;;;;;;;;;;;;;22.62;42.07;99756.91;4828375;29;96952;-86
2024/04/04 09:56:26;;;;;;;7.03;6.43;;;;;;;21.94;43.97;99744.38;4858525;29;97512;-87
2024/04/04 09:58:53;;;;;;;7.15;6.68;;;;;;;21.71;44.39;99738.41;4826078;29;98543;-87
2024/04/04 10:01:20;;;;;;;7.30;6.65;;;;;;;21.54;44.32;99739.09;4836101;29;96803;-87
2024/04/04 10:03:52;;;;;;;7.70;7.30;;;;;;;21.18;45.33;99757.34;4849560;29;96848;-83
2024/04/04 10:06:35;;;;;;;7.90;7.20;;;;;;;21.33;44.26;99747.97;4822300;29;98049;-83
2024/04/04 10:09:15;;;;;;;8.95;8.15;;;;;;;21.35;44.27;99753.16;4827260;29;97870;-83
2024/04/04 10:11:41;;;;;;;9.07;8.47;;;;;;;21.65;44.06;99742.47;4833323;29;96930;-82
2024/04/04 10:14:14;;;;;;;9.10;8.43;;;;;;;21.24;43.86;99748.78;4830657;29;96944;-87
2024/04/04 10:16:44;;;;;;;8.65;8.15;;;;;;;20.65;44.97;99747.63;4831860;29;98030;-89
2024/04/04 10:19:10;;;;;;;7.80;7.30;;;;;;;20.65;45.63;99749.44;4819785;29;100499;-88
2024/04/04 10:21:35;;;;;;;8.10;7.60;;;;;;;20.56;46.02;99751.91;4837253;29;96897;-89
2024/04/04 10:24:02;;;;;;;7.40;6.90;;;;;;;20.00;46.97;99746.81;4811788;29;97119;-89
2024/04/04 10:26:28;;;;;;;8.57;7.72;;;;;;;19.60;47.96;99743.84;4828560;29;97099;-85
2024/04/04 10:28:54;;;;;;;9.60;8.70;;;;;;;19.58;48.17;99741.31;4827603;29;98387;-90
2024/04/04 10:31:19;;;;;;;8.95;8.43;;;;;;;19.55;48.48;99743.41;4819333;29;96823;-89
2024/04/04 10:33:45;;;;;;;7.22;6.72;;;;;;;19.53;48.48;99740.84;4818694;29;97061;-89
2024/04/04 10:36:10;;;;;;;6.82;6.38;;;;;;;19.49;48.71;99747.41;4798511;29;101748;-89
2024/04/04 10:38:36;;;;;;;7.63;6.90;;;;;;;19.48;48.00;99742.19;4807360;29;101155;-89
2024/04/04 10:41:02;;;;;;;6.90;6.40;;;;;;;19.72;47.49;99748.19;4829221;29;96759;-90
2024/04/04 10:43:27;;;;;;;7.55;7.07;;;;;;;20.00;47.54;99756.63;4805802;29;96970;-90
2024/04/04 10:45:54;;;;;;;8.48;7.97;;;;;;;20.01;47.79;99747.66;4806082;29;100128;-91
2024/04/04 10:48:19;;;;;;;11.52;8.57;;;;;;;20.06;47.48;99758.78;4814002;29;99730;-90
2024/04/04 10:50:45;;;;;;;8.68;7.88;;;;;;;20.08;47.13;99746.19;4798942;29;96832;-89
2024/04/04 10:53:11;;;;;;;7.93;7.43;;;;;;;20.00;46.91;99741.47;4820942;29;96817;-90
2024/04/04 10:55:36;;;;;;;7.43;6.93;;;;;;;20.11;46.84;99727.28;4828192;29;98472;-90
2024/04/04 10:58:07;;;;;;;7.82;7.25;;;;;;;20.26;46.65;99733.16;4794427;29;101583;-89
2024/04/04 11:00:35;;;;;;;7.47;6.90;;;;;;;20.43;45.53;99726.41;4825397;29;96801;-90
2024/04/04 11:03:03;;;;;;;7.85;7.35;;;;;;;20.23;46.05;99720.91;4825959;29;96855;-90
2024/04/04 11:05:28;;;;;;;7.47;6.80;;;;;;;19.93;46.01;99724.31;4817520;29;97691;-90
2024/04/04 11:07:59;;;;;;;8.10;7.53;;;;;;;19.93;45.36;99727.00;4828144;29;101258;-90
2024/04/04 11:10:26;;;;;;;8.82;8.23;;;;;;;19.62;45.92;99718.78;4832968;29;98323;-91
2024/04/04 11:12:52;;;;;;;7.00;6.60;;;;;;;19.42;46.20;99708.91;4823375;29;96982;-89
2024/04/04 11:15:19;;;;;;;6.70;6.30;;;;;;;19.24;46.85;99697.94;4844860;29;97976;-89
2024/04/04 11:17:45;;;;;;;5.80;5.50;;;;;;;19.30;46.81;99705.44;4827853;29;101510;-90
2024/04/04 11:20:17;;;;;;;6.15;5.63;;;;;;;19.34;47.08;99696.22;4820614;29;97461;-90
2024/04/04 11:22:43;;;;;;;7.20;6.70;;;;;;;19.10;47.55;99708.81;4819286;29;97031;-89
2024/04/04 11:25:10;;;;;;;7.90;7.40;;;;;;;18.73;48.21;99709.91;4813438;29;101533;-91